createdAt,value
2018-01-29T00:00:36.632Z,2.00
2018-01-29T00:03:03.949Z,1.60
2018-01-29T00:05:31.273Z,1.60
2018-01-29T00:07:58.629Z,2.00
2018-01-29T00:10:25.954Z,1.87
2018-01-29T00:12:53.309Z,2.13
2018-01-29T00:15:20.646Z,2.40
2018-01-29T00:17:47.995Z,1.90
2018-01-29T00:20:15.326Z,2.03
2018-01-29T00:22:42.702Z,2.40
2018-01-29T00:25:10.021Z,2.30
2018-01-29T00:27:37.371Z,2.40
2018-01-29T00:30:04.693Z,2.70
2018-01-29T00:32:32.042Z,3.20
2018-01-29T00:34:59.493Z,2.53
2018-01-29T00:37:26.854Z,2.73
2018-01-29T00:39:54.196Z,3.50
2018-01-29T00:42:21.517Z,2.80
2018-01-29T00:44:48.862Z,2.93
2018-01-29T00:47:16.267Z,3.07
2018-01-29T00:49:43.724Z,2.33
2018-01-29T00:52:11.053Z,3.37
2018-01-29T00:54:38.377Z,2.97
2018-01-29T00:57:05.725Z,3.20
2018-01-29T00:59:33.061Z,3.20
2018-01-29T01:02:00.416Z,2.97
2018-01-29T01:04:27.747Z,2.63
2018-01-29T01:06:55.090Z,3.17
2018-01-29T01:09:22.466Z,2.90
2018-01-29T01:11:49.838Z,3.27
2018-01-29T01:14:17.161Z,2.93
2018-01-29T01:16:44.486Z,2.50
2018-01-29T01:19:11.873Z,2.43
2018-01-29T01:21:39.204Z,3.37
2018-01-29T01:24:06.550Z,3.27
2018-01-29T01:26:33.870Z,2.90
2018-01-29T01:29:01.233Z,3.13
2018-01-29T01:31:28.562Z,2.93
2018-01-29T01:33:55.877Z,4.10
2018-01-29T01:36:23.262Z,3.17
2018-01-29T01:38:50.581Z,2.90
2018-01-29T01:41:17.958Z,2.87
2018-01-29T01:43:45.294Z,3.00
2018-01-29T01:46:12.693Z,3.90
2018-01-29T01:48:40.017Z,3.23
2018-01-29T01:51:07.412Z,3.27
2018-01-29T01:53:34.761Z,3.07
2018-01-29T01:56:02.213Z,3.63
2018-01-29T01:58:29.555Z,3.30
2018-01-29T02:00:56.884Z,3.43
2018-01-29T02:03:24.257Z,3.50
2018-01-29T02:05:51.590Z,2.90
2018-01-29T02:08:18.955Z,3.40
2018-01-29T02:10:46.279Z,3.17
2018-01-29T02:13:13.625Z,3.33
2018-01-29T02:15:40.989Z,3.13
2018-01-29T02:18:08.323Z,2.50
2018-01-29T02:20:35.677Z,2.50
2018-01-29T02:23:03.000Z,2.87
2018-01-29T02:25:30.349Z,2.50
2018-01-29T02:27:57.664Z,2.70
2018-01-29T02:30:25.009Z,2.90
2018-01-29T02:32:52.345Z,2.40
2018-01-29T02:35:19.707Z,2.20
2018-01-29T02:37:47.047Z,2.63
2018-01-29T02:40:14.371Z,2.43
2018-01-29T02:42:41.733Z,2.00
2018-01-29T02:45:09.049Z,2.30
2018-01-29T02:47:36.460Z,2.07
2018-01-29T02:50:03.796Z,2.20
2018-01-29T02:52:31.154Z,2.33
2018-01-29T02:54:58.473Z,2.03
2018-01-29T02:57:25.820Z,2.23
2018-01-29T02:59:53.149Z,2.07
2018-01-29T03:02:20.513Z,1.77
2018-01-29T03:04:47.838Z,2.23
2018-01-29T03:07:15.153Z,2.03
2018-01-29T03:09:42.511Z,2.23
2018-01-29T03:12:09.885Z,1.80
2018-01-29T03:14:37.243Z,2.00
2018-01-29T03:17:04.590Z,2.20
2018-01-29T03:19:31.968Z,2.43
2018-01-29T03:21:59.284Z,2.20
2018-01-29T03:24:26.656Z,2.50
2018-01-29T03:26:53.996Z,2.53
2018-01-29T03:29:21.349Z,2.00
2018-01-29T03:31:48.669Z,1.97
2018-01-29T03:34:15.999Z,2.37
2018-01-29T03:36:43.366Z,1.90
2018-01-29T03:39:10.694Z,1.70
2018-01-29T03:41:38.073Z,1.60
2018-01-29T03:44:05.416Z,1.13
2018-01-29T03:46:32.767Z,1.30
2018-01-29T03:49:00.091Z,1.30
2018-01-29T03:51:27.477Z,1.07
2018-01-29T03:53:54.798Z,1.10
2018-01-29T03:56:22.165Z,1.37
2018-01-29T03:58:49.499Z,1.63
2018-01-29T04:01:16.896Z,1.13
2018-01-29T04:03:44.247Z,1.60
2018-01-29T04:06:11.566Z,1.10
2018-01-29T04:08:38.961Z,1.43
2018-01-29T04:11:06.280Z,1.30
2018-01-29T04:13:33.629Z,1.00
2018-01-29T04:16:01.028Z,1.00
2018-01-29T04:18:28.377Z,0.90
2018-01-29T04:20:55.734Z,0.93
2018-01-29T04:23:23.061Z,1.17
2018-01-29T04:25:50.421Z,0.90
2018-01-29T04:28:17.738Z,1.00
2018-01-29T04:30:45.094Z,1.00
2018-01-29T04:33:12.427Z,1.00
2018-01-29T04:35:39.793Z,0.90
2018-01-29T04:38:07.122Z,1.10
2018-01-29T04:40:34.446Z,0.90
2018-01-29T04:43:01.794Z,1.27
2018-01-29T04:45:29.124Z,1.50
2018-01-29T04:47:56.474Z,0.90
2018-01-29T04:50:23.804Z,1.10
2018-01-29T04:52:51.156Z,1.20
2018-01-29T04:55:18.603Z,1.10
2018-01-29T04:57:45.955Z,1.10
2018-01-29T05:00:13.275Z,0.90
2018-01-29T05:02:40.598Z,1.10
2018-01-29T05:05:07.944Z,0.80
2018-01-29T05:07:35.385Z,1.10
2018-01-29T05:10:02.725Z,0.90
2018-01-29T05:12:30.051Z,1.00
2018-01-29T05:14:57.412Z,1.17
2018-01-29T05:17:24.737Z,1.13
2018-01-29T05:19:52.101Z,0.83
2018-01-29T05:22:19.420Z,1.10
2018-01-29T05:24:46.742Z,1.10
2018-01-29T05:27:14.097Z,1.00
2018-01-29T05:29:41.425Z,0.90
2018-01-29T05:32:08.802Z,1.10
2018-01-29T05:34:36.132Z,1.00
2018-01-29T05:37:22.166Z,1.10
2018-01-29T05:39:49.481Z,0.90
2018-01-29T05:42:16.837Z,0.90
2018-01-29T05:44:44.158Z,0.70
2018-01-29T05:47:11.481Z,0.93
2018-01-29T05:49:38.835Z,0.60
2018-01-29T05:52:06.174Z,0.80
2018-01-29T05:54:33.526Z,0.80
2018-01-29T05:57:00.848Z,0.70
2018-01-29T05:59:28.218Z,0.70
2018-01-29T06:01:55.534Z,0.80
2018-01-29T06:04:22.885Z,0.70
2018-01-29T06:06:50.210Z,0.90
2018-01-29T06:09:17.572Z,0.73
2018-01-29T06:11:44.918Z,1.00
2018-01-29T06:14:12.243Z,1.10
2018-01-29T06:16:39.590Z,2.00
2018-01-29T06:19:06.919Z,0.87
2018-01-29T06:21:34.266Z,1.20
2018-01-29T06:24:01.593Z,0.90
2018-01-29T06:26:29.154Z,0.80
2018-01-29T06:28:56.511Z,1.00
2018-01-29T06:31:23.829Z,1.00
2018-01-29T06:33:51.182Z,1.03
2018-01-29T06:36:18.527Z,0.60
2018-01-29T06:38:45.881Z,0.90
2018-01-29T06:41:13.287Z,1.30
2018-01-29T06:43:40.645Z,0.80
2018-01-29T06:46:07.968Z,0.70
2018-01-29T06:48:35.320Z,0.80
2018-01-29T06:51:02.705Z,3.47
2018-01-29T06:53:30.025Z,0.70
2018-01-29T06:55:57.375Z,1.00
2018-01-29T06:58:24.772Z,0.70
2018-01-29T07:00:52.124Z,0.60
2018-01-29T07:03:19.445Z,0.97
2018-01-29T07:05:46.813Z,1.00
2018-01-29T07:08:14.137Z,0.90
2018-01-29T07:10:41.517Z,1.13
2018-01-29T07:13:08.846Z,0.90
2018-01-29T07:15:36.254Z,0.80
2018-01-29T07:18:03.710Z,1.00
2018-01-29T07:20:31.030Z,0.60
2018-01-29T07:22:58.378Z,1.00
2018-01-29T07:25:25.717Z,0.90
2018-01-29T07:27:53.067Z,1.43
2018-01-29T07:30:20.484Z,3.10
2018-01-29T07:32:47.848Z,0.60
2018-01-29T07:35:15.194Z,0.70
2018-01-29T07:37:42.563Z,0.87
2018-01-29T07:40:09.888Z,1.23
2018-01-29T07:42:37.209Z,1.30
2018-01-29T07:45:04.614Z,0.83
2018-01-29T07:47:31.945Z,0.60
2018-01-29T07:49:59.299Z,0.90
2018-01-29T07:52:26.633Z,0.80
2018-01-29T07:54:53.987Z,0.90
2018-01-29T07:57:21.404Z,0.77
2018-01-29T07:59:48.738Z,0.70
2018-01-29T08:02:16.066Z,0.97
2018-01-29T08:04:43.397Z,0.87
2018-01-29T08:07:10.752Z,0.70
2018-01-29T08:09:38.077Z,0.80
2018-01-29T08:12:05.590Z,0.87
2018-01-29T08:14:32.926Z,1.00
2018-01-29T08:17:00.274Z,0.90
2018-01-29T08:19:27.603Z,0.60
2018-01-29T08:21:54.964Z,0.93
2018-01-29T08:24:22.294Z,0.60
2018-01-29T08:26:49.626Z,0.57
2018-01-29T08:29:16.982Z,0.60
2018-01-29T08:31:44.313Z,1.57
2018-01-29T08:34:11.663Z,0.80
2018-01-29T08:36:38.993Z,0.70
2018-01-29T08:39:06.348Z,0.83
2018-01-29T08:41:33.682Z,0.70
2018-01-29T08:44:01.035Z,0.70
2018-01-29T08:46:28.366Z,0.90
2018-01-29T08:48:55.697Z,0.70
2018-01-29T08:51:23.060Z,0.60
2018-01-29T08:53:50.387Z,0.83
2018-01-29T08:56:17.737Z,0.70
2018-01-29T08:58:45.077Z,0.80
2018-01-29T09:01:12.431Z,0.73
2018-01-29T09:03:39.766Z,0.70
2018-01-29T09:06:07.126Z,0.60
2018-01-29T09:08:34.452Z,1.00
2018-01-29T09:11:01.778Z,0.73
2018-01-29T09:13:29.152Z,0.80
2018-01-29T09:15:56.483Z,0.70
2018-01-29T09:18:23.835Z,0.67
2018-01-29T09:20:51.162Z,0.70
2018-01-29T09:23:18.516Z,1.00
2018-01-29T09:25:45.842Z,1.20
2018-01-29T09:28:13.200Z,1.00
2018-01-29T09:30:40.521Z,1.00
2018-01-29T09:33:07.848Z,0.90
2018-01-29T09:35:35.233Z,1.70
2018-01-29T09:38:02.558Z,1.00
2018-01-29T09:40:29.910Z,1.00
2018-01-29T09:42:57.242Z,1.10
2018-01-29T09:45:24.616Z,1.87
2018-01-29T09:47:51.946Z,1.57
2018-01-29T09:50:19.319Z,0.97
2018-01-29T09:52:46.646Z,0.80
2018-01-29T09:55:13.975Z,0.70
2018-01-29T09:57:41.335Z,0.87
2018-01-29T10:00:08.657Z,0.73
2018-01-29T10:02:36.035Z,0.67
2018-01-29T10:05:03.354Z,0.70
2018-01-29T10:07:30.701Z,0.80
2018-01-29T10:09:58.032Z,0.60
2018-01-29T10:12:25.401Z,0.50
2018-01-29T10:14:52.750Z,0.60
2018-01-29T10:17:20.078Z,0.60
2018-01-29T10:19:47.425Z,0.60
2018-01-29T10:22:14.745Z,0.70
2018-01-29T10:24:42.095Z,0.60
2018-01-29T10:27:09.410Z,0.70
2018-01-29T10:29:36.758Z,0.70
2018-01-29T10:32:04.080Z,0.80
2018-01-29T10:34:31.450Z,0.70
2018-01-29T10:36:58.765Z,0.50
2018-01-29T10:39:26.095Z,0.60
2018-01-29T10:41:53.441Z,0.70
2018-01-29T10:44:20.769Z,0.60
2018-01-29T10:46:48.121Z,0.70
2018-01-29T10:49:15.438Z,0.50
2018-01-29T10:51:42.783Z,0.70
2018-01-29T10:54:10.104Z,0.63
2018-01-29T10:56:37.454Z,1.00
2018-01-29T10:59:04.771Z,1.07
2018-01-29T11:01:32.145Z,0.60
2018-01-29T11:03:59.470Z,0.70
2018-01-29T11:06:26.852Z,0.90
2018-01-29T11:08:54.187Z,0.70
2018-01-29T11:11:21.541Z,0.80
2018-01-29T11:13:48.863Z,0.70
2018-01-29T11:16:16.213Z,0.60
2018-01-29T11:18:43.538Z,0.60
2018-01-29T11:21:10.893Z,0.80
2018-01-29T11:23:38.858Z,0.67
2018-01-29T11:26:06.210Z,0.70
2018-01-29T11:28:33.574Z,0.80
2018-01-29T11:31:00.915Z,0.67
2018-01-29T11:33:28.253Z,0.90
2018-01-29T11:35:55.597Z,0.70
2018-01-29T11:38:22.920Z,0.80
2018-01-29T11:40:50.242Z,0.70
2018-01-29T11:43:17.593Z,0.73
2018-01-29T11:45:44.912Z,0.90
2018-01-29T11:48:12.280Z,0.73
2018-01-29T11:50:39.605Z,0.70
2018-01-29T11:53:06.957Z,0.90
2018-01-29T11:55:34.269Z,0.90
2018-01-29T11:58:01.618Z,1.07
2018-01-29T12:00:28.937Z,0.83
2018-01-29T12:02:56.281Z,0.83
2018-01-29T12:05:23.613Z,0.70
2018-01-29T12:07:50.974Z,0.90
2018-01-29T12:10:18.293Z,1.20
2018-01-29T12:12:45.668Z,1.57
2018-01-29T12:15:12.995Z,0.80
2018-01-29T12:17:40.363Z,0.90
2018-01-29T12:20:07.691Z,0.60
2018-01-29T12:22:35.018Z,0.67
2018-01-29T12:25:02.365Z,0.70
2018-01-29T12:27:29.797Z,0.80
2018-01-29T12:29:57.159Z,0.70
2018-01-29T12:32:24.481Z,0.80
2018-01-29T12:34:51.830Z,0.67
2018-01-29T12:37:19.156Z,0.67
2018-01-29T12:39:46.501Z,0.97
2018-01-29T12:42:13.825Z,0.80
2018-01-29T12:44:41.179Z,0.83
2018-01-29T12:47:08.521Z,0.80
2018-01-29T12:49:35.880Z,0.80
2018-01-29T12:52:03.202Z,0.80
2018-01-29T12:54:30.517Z,0.80
2018-01-29T12:56:57.867Z,0.80
2018-01-29T12:59:25.185Z,0.90
2018-01-29T13:01:52.533Z,0.80
2018-01-29T13:04:19.878Z,1.00
2018-01-29T13:06:47.225Z,0.80
2018-01-29T13:09:14.542Z,0.80
2018-01-29T13:11:41.888Z,0.70
2018-01-29T13:14:09.263Z,0.70
2018-01-29T13:16:36.638Z,0.60
2018-01-29T13:19:03.993Z,0.97
2018-01-29T13:21:31.321Z,1.00
2018-01-29T13:23:58.685Z,1.00
2018-01-29T13:26:26.012Z,1.00
2018-01-29T13:28:53.365Z,0.80
2018-01-29T13:31:20.715Z,1.03
2018-01-29T13:33:48.062Z,1.10
2018-01-29T13:36:15.383Z,0.90
2018-01-29T13:38:42.745Z,1.30
2018-01-29T13:41:10.066Z,1.10
2018-01-29T13:43:37.807Z,1.30
2018-01-29T13:46:05.150Z,1.20
2018-01-29T13:48:32.489Z,1.67
2018-01-29T13:50:59.837Z,0.90
2018-01-29T13:53:27.184Z,2.40
2018-01-29T13:55:54.535Z,0.60
2018-01-29T13:58:21.867Z,0.70
2018-01-29T14:00:49.217Z,0.70
2018-01-29T14:03:16.564Z,1.40
2018-01-29T14:05:43.884Z,0.97
2018-01-29T14:08:11.253Z,0.80
2018-01-29T14:10:38.600Z,2.87
2018-01-29T14:13:05.953Z,1.00
2018-01-29T14:15:33.273Z,0.87
2018-01-29T14:18:00.627Z,0.70
2018-01-29T14:20:27.950Z,0.90
2018-01-29T14:22:55.302Z,0.90
2018-01-29T14:25:22.665Z,0.90
2018-01-29T14:27:49.998Z,0.90
2018-01-29T14:30:17.351Z,0.90
2018-01-29T14:32:44.679Z,0.70
2018-01-29T14:35:12.025Z,1.00
2018-01-29T14:37:39.354Z,0.80
2018-01-29T14:40:06.711Z,1.27
2018-01-29T14:42:34.029Z,1.90
2018-01-29T14:45:01.354Z,1.30
2018-01-29T14:47:28.697Z,0.80
2018-01-29T14:49:56.017Z,1.40
2018-01-29T14:52:23.374Z,1.30
2018-01-29T14:54:50.716Z,1.30
2018-01-29T14:57:18.063Z,1.17
2018-01-29T14:59:45.390Z,0.90
2018-01-29T15:02:12.744Z,0.67
2018-01-29T15:04:40.079Z,0.80
2018-01-29T15:07:07.432Z,1.00
2018-01-29T15:09:34.751Z,1.00
2018-01-29T15:12:02.148Z,1.10
2018-01-29T15:14:29.478Z,1.37
2018-01-29T15:16:56.799Z,0.80
2018-01-29T15:19:24.149Z,1.97
2018-01-29T15:21:51.474Z,1.30
2018-01-29T15:24:18.827Z,1.33
2018-01-29T15:26:46.137Z,1.10
2018-01-29T15:29:13.506Z,1.20
2018-01-29T15:31:40.815Z,0.83
2018-01-29T15:34:08.140Z,1.57
2018-01-29T15:36:35.494Z,1.27
2018-01-29T15:39:02.819Z,1.20
2018-01-29T15:41:30.185Z,1.00
2018-01-29T15:43:57.509Z,1.07
2018-01-29T15:46:24.897Z,1.27
2018-01-29T15:48:52.200Z,1.07
2018-01-29T15:51:19.563Z,1.27
2018-01-29T15:53:46.881Z,1.23
2018-01-29T15:56:14.251Z,0.97
2018-01-29T15:58:41.578Z,1.10
2018-01-29T16:01:08.902Z,0.90
2018-01-29T16:03:36.249Z,0.90
2018-01-29T16:06:03.565Z,1.20
2018-01-29T16:08:30.919Z,1.17
2018-01-29T16:10:58.242Z,1.70
2018-01-29T16:13:25.589Z,1.00
2018-01-29T16:15:52.918Z,1.07
2018-01-29T16:18:20.243Z,1.53
2018-01-29T16:20:47.595Z,1.40
2018-01-29T16:23:14.919Z,1.27
2018-01-29T16:25:42.271Z,1.10
2018-01-29T16:28:09.592Z,1.33
2018-01-29T16:30:36.943Z,1.17
2018-01-29T16:33:04.266Z,1.23
2018-01-29T16:35:31.626Z,1.50
2018-01-29T16:37:58.985Z,1.35
2018-01-29T16:40:26.312Z,2.00
2018-01-29T16:42:53.661Z,1.50
2018-01-29T16:45:20.984Z,1.40
2018-01-29T16:47:48.341Z,1.67
2018-01-29T16:50:15.675Z,1.47
2018-01-29T16:52:43.039Z,1.87
2018-01-29T16:55:10.374Z,2.43
2018-01-29T16:57:37.791Z,1.40
2018-01-29T17:00:05.162Z,1.70
2018-01-29T17:02:32.480Z,1.80
2018-01-29T17:04:59.828Z,2.80
2018-01-29T17:07:27.150Z,1.40
2018-01-29T17:09:54.509Z,2.67
2018-01-29T17:12:21.848Z,2.60
2018-01-29T17:14:49.415Z,1.90
2018-01-29T17:17:16.750Z,1.70
2018-01-29T17:19:44.079Z,1.93
2018-01-29T17:22:11.434Z,2.10
2018-01-29T17:24:39.067Z,2.37
2018-01-29T17:27:06.628Z,2.30
2018-01-29T17:29:34.129Z,2.23
2018-01-29T17:32:01.473Z,2.40
2018-01-29T17:34:28.836Z,2.50
2018-01-29T17:36:56.200Z,1.83
2018-01-29T17:39:23.538Z,1.97
2018-01-29T17:41:50.932Z,1.90
2018-01-29T17:44:18.278Z,1.60
2018-01-29T17:46:45.606Z,1.90
2018-01-29T17:49:12.994Z,1.60
2018-01-29T17:51:41.456Z,1.87
2018-01-29T17:54:08.791Z,2.53
2018-01-29T17:56:36.171Z,1.90
2018-01-29T17:59:03.548Z,2.10
2018-01-29T18:01:31.132Z,1.43
2018-01-29T18:03:58.455Z,1.17
2018-01-29T18:06:25.812Z,1.70
2018-01-29T18:08:53.139Z,1.30
2018-01-29T18:11:20.713Z,1.53
2018-01-29T18:13:48.058Z,1.77
2018-01-29T18:16:15.578Z,1.40
2018-01-29T18:18:42.922Z,1.70
2018-01-29T18:21:10.246Z,1.70
2018-01-29T18:23:38.057Z,2.27
2018-01-29T18:26:05.875Z,1.87
2018-01-29T18:28:33.327Z,1.40
2018-01-29T18:31:00.672Z,1.50
2018-01-29T18:33:27.996Z,1.70
2018-01-29T18:35:55.384Z,1.50
2018-01-29T18:38:22.705Z,2.23
2018-01-29T18:40:50.062Z,1.70
2018-01-29T18:43:17.387Z,1.70
2018-01-29T18:45:44.798Z,2.10
2018-01-29T18:48:12.256Z,2.73
2018-01-29T18:50:39.708Z,2.90
2018-01-29T18:53:07.061Z,2.00
2018-01-29T18:55:34.383Z,2.17
2018-01-29T18:58:01.794Z,3.03
2018-01-29T19:00:29.171Z,2.13
2018-01-29T19:02:56.571Z,3.67
2018-01-29T19:05:23.940Z,3.80
2018-01-29T19:07:51.340Z,1.57
2018-01-29T19:10:18.662Z,2.60
2018-01-29T19:12:46.033Z,4.93
2018-01-29T19:15:13.423Z,2.53
2018-01-29T19:17:40.797Z,1.70
2018-01-29T19:20:08.142Z,1.20
2018-01-29T19:22:35.471Z,1.63
2018-01-29T19:25:02.872Z,1.10
2018-01-29T19:27:30.190Z,1.33
2018-01-29T19:29:57.604Z,1.33
2018-01-29T19:32:24.962Z,1.33
2018-01-29T19:34:52.334Z,1.30
2018-01-29T19:37:19.767Z,1.30
2018-01-29T19:39:47.153Z,1.27
2018-01-29T19:42:14.495Z,1.80
2018-01-29T19:44:41.819Z,1.40
2018-01-29T19:47:09.232Z,1.50
2018-01-29T19:49:36.589Z,1.40
2018-01-29T19:52:03.907Z,1.30
2018-01-29T19:54:31.254Z,1.30
2018-01-29T19:56:58.625Z,1.80
2018-01-29T19:59:25.979Z,1.20
2018-01-29T20:01:53.375Z,1.60
2018-01-29T20:04:20.786Z,1.60
2018-01-29T20:06:48.153Z,1.30
2018-01-29T20:09:15.518Z,1.40
2018-01-29T20:11:42.928Z,1.43
2018-01-29T20:14:10.285Z,1.00
2018-01-29T20:16:37.687Z,1.43
2018-01-29T20:19:05.003Z,1.30
2018-01-29T20:21:32.352Z,2.43
2018-01-29T20:23:59.719Z,1.10
2018-01-29T20:26:27.093Z,1.20
2018-01-29T20:28:54.541Z,1.40
2018-01-29T20:31:21.867Z,1.93
2018-01-29T20:33:49.273Z,1.60
2018-01-29T20:36:16.635Z,1.20
2018-01-29T20:38:43.985Z,1.20
2018-01-29T20:41:11.365Z,1.47
2018-01-29T20:43:39.358Z,2.70
2018-01-29T20:46:06.728Z,1.60
2018-01-29T20:48:34.083Z,1.97
2018-01-29T20:51:01.639Z,1.63
2018-01-29T20:53:29.032Z,1.97
2018-01-29T20:55:56.435Z,1.70
2018-01-29T20:58:23.802Z,1.27
2018-01-29T21:00:51.997Z,1.60
2018-01-29T21:03:22.351Z,1.70
2018-01-29T21:05:52.993Z,2.00
2018-01-29T21:08:26.780Z,1.37
2018-01-29T21:10:59.284Z,1.30
2018-01-29T21:13:30.142Z,1.83
2018-01-29T21:16:02.597Z,1.53
2018-01-29T21:18:39.658Z,1.40
2018-01-29T21:21:10.826Z,1.67
2018-01-29T21:23:42.171Z,1.70
2018-01-29T21:26:17.460Z,1.40
2018-01-29T21:28:47.201Z,1.30
2018-01-29T21:31:17.590Z,1.93
2018-01-29T21:34:03.219Z,1.50
2018-01-29T21:36:34.806Z,1.60
2018-01-29T21:39:05.788Z,1.30
2018-01-29T21:41:36.950Z,1.30
2018-01-29T21:44:11.530Z,1.33
2018-01-29T21:46:50.735Z,1.40
2018-01-29T21:49:23.609Z,1.13
2018-01-29T21:51:57.845Z,1.30
2018-01-29T21:54:32.230Z,1.70
2018-01-29T21:57:08.493Z,1.30
2018-01-29T21:59:44.575Z,1.40
2018-01-29T22:02:15.719Z,1.80
2018-01-29T22:04:45.730Z,1.40
2018-01-29T22:07:17.930Z,1.60
2018-01-29T22:09:54.981Z,1.57
2018-01-29T22:12:28.164Z,1.90
2018-01-29T22:14:57.547Z,1.67
2018-01-29T22:17:30.958Z,1.57
2018-01-29T22:20:02.094Z,1.63
2018-01-29T22:22:34.602Z,1.43
2018-01-29T22:25:08.289Z,1.60
2018-01-29T22:27:48.853Z,1.50
2018-01-29T22:30:29.298Z,1.53
2018-01-29T22:33:04.865Z,1.40
2018-01-29T22:35:38.489Z,1.70
2018-01-29T22:38:09.819Z,1.90
2018-01-29T22:40:41.811Z,1.40
2018-01-29T22:43:12.319Z,1.33
2018-01-29T22:45:43.273Z,1.30
2018-01-29T22:48:16.145Z,1.43
2018-01-29T22:50:50.322Z,1.30
2018-01-29T22:53:27.862Z,1.60
2018-01-29T22:55:59.927Z,1.47
2018-01-29T22:58:33.328Z,1.90
2018-01-29T23:01:09.179Z,1.63
2018-01-29T23:03:43.496Z,1.70
2018-01-29T23:06:13.677Z,2.40
2018-01-29T23:08:47.018Z,1.60
2018-01-29T23:11:23.998Z,1.63
2018-01-29T23:16:33.424Z,1.77
2018-01-29T23:19:16.059Z,1.43
2018-01-29T23:21:52.405Z,1.30
2018-01-29T23:24:23.216Z,1.37
2018-01-29T23:27:02.596Z,1.60
2018-01-29T23:29:32.102Z,1.40
2018-01-29T23:34:45.941Z,1.80
2018-01-29T23:37:19.439Z,1.30
2018-01-29T23:45:19.490Z,1.53
2018-01-29T23:47:53.526Z,1.20
2018-01-29T23:50:24.027Z,1.30
2018-01-29T23:52:56.632Z,1.33
2018-01-29T23:55:27.732Z,1.37
2018-01-29T23:57:58.812Z,1.63
